»·PEaware :: SWA2877 KLAS-KPHX

SWA2877 :: KLAS-KPHX

FLIGHT INFORMATION

Flight Status: Arrived
Operator:
Southwest Airlines
More flights by this operator :: More flights under this callsign
Pilot: Drew L. (13237)
Aircraft: BOEING 737-300
(B733)
More flights by this aircraft type
Origin: KLAS McCarran Intl
United States
Destination: KPHX Phoenix Sky Harbor Intl
United States
More flights between these airports :: More routes between these airports
Route: COWBY6 COWBY TENTS BRUSR1
File this flight plan on PilotEdge
Remarks: Sample flight plan
Altitude:
(Current/Filed)
29,000ft
Speed:
(Current/Filed)
550kts
Departed: 17-Jun-17 12:45 PM
Arrived: 17-Jun-17 01:38 PM
Distance/Time
Traveled:
222nm/0:53
Distance/Time
To Go:
Arrived

Flight Plot

Page will automatically refresh every two minutes.


Map Options




Map Legend


Flown Route
Filed Route
Departure Airport
Arrival Airport
Navaid (VOR, NDB)
Fix

Horizontal Profiles

Position Reports

Time Latitude Longitude Heading Altitude Ground
Speed
17-Jun-17 12:27 36.080215 -115.145775 276 2091ft 0kts
17-Jun-17 12:28 36.080215 -115.145775 276 2091ft 0kts
17-Jun-17 12:29 36.080215 -115.145775 276 2091ft 0kts
17-Jun-17 12:30 36.080215 -115.145775 276 2091ft 0kts
17-Jun-17 12:31 36.080215 -115.145775 276 2091ft 0kts
17-Jun-17 12:32 36.080215 -115.145775 276 2091ft 0kts
17-Jun-17 12:33 36.080191 -115.145512 276 2091ft 0kts
17-Jun-17 12:34 36.080133 -115.144835 275 2089ft 0kts
17-Jun-17 12:35 36.080122 -115.144820 253 2089ft 1kts
17-Jun-17 12:36 36.079033 -115.144898 180 2092ft 0kts
17-Jun-17 12:37 36.079033 -115.144898 180 2092ft 0kts
17-Jun-17 12:38 36.079033 -115.144898 180 2092ft 0kts
17-Jun-17 12:39 36.079033 -115.144898 180 2092ft 0kts
17-Jun-17 12:40 36.078295 -115.143912 93 2089ft 15kts
17-Jun-17 12:41 36.078241 -115.135943 90 2066ft 29kts
17-Jun-17 12:42 36.078252 -115.125878 89 2040ft 32kts
17-Jun-17 12:43 36.077410 -115.121491 130 2036ft 0kts
17-Jun-17 12:44 36.077410 -115.121491 130 2036ft 0kts
17-Jun-17 12:45 36.077410 -115.121491 130 2036ft 0kts
17-Jun-17 12:46 36.077053 -115.121269 184 2036ft 11kts
17-Jun-17 12:47 36.076425 -115.144865 270 2162ft 180kts
17-Jun-17 12:48 36.074231 -115.220550 271 3949ft 262kts
17-Jun-17 12:49 36.020537 -115.278437 200 6949ft 283kts
17-Jun-17 12:50 35.948386 -115.293220 165 9902ft 302kts
17-Jun-17 12:51 35.865498 -115.243971 122 11248ft 368kts
17-Jun-17 12:52 35.833350 -115.124271 105 14096ft 376kts
17-Jun-17 12:53 35.828221 -114.996751 81 16696ft 386kts
17-Jun-17 12:54 35.840682 -114.862997 83 18938ft 404kts
17-Jun-17 12:55 35.853204 -114.724736 84 21758ft 403kts
17-Jun-17 12:56 35.865559 -114.586585 81 23773ft 417kts
17-Jun-17 12:57 35.878216 -114.443041 82 25907ft 422kts
17-Jun-17 12:58 35.890894 -114.297350 83 26870ft 454kts
17-Jun-17 12:59 35.904240 -114.141301 86 28703ft 455kts
17-Jun-17 13:00 35.916542 -113.995558 86 28887ft 433kts
17-Jun-17 13:01 35.911475 -113.851132 114 29002ft 427kts
17-Jun-17 13:02 35.873290 -113.724861 111 28963ft 454kts
17-Jun-17 13:03 35.830464 -113.578138 111 28997ft 456kts
17-Jun-17 13:04 35.787488 -113.432123 111 28995ft 456kts
17-Jun-17 13:05 35.744630 -113.287065 112 28991ft 456kts
17-Jun-17 13:06 35.701356 -113.141460 112 29042ft 456kts
17-Jun-17 13:07 35.657690 -112.995372 112 29216ft 454kts
17-Jun-17 13:08 35.614073 -112.850199 112 29211ft 454kts
17-Jun-17 13:09 35.570247 -112.705071 112 29212ft 453kts
17-Jun-17 13:10 35.526264 -112.560148 112 29211ft 454kts
17-Jun-17 13:11 35.465048 -112.430746 152 29198ft 444kts
17-Jun-17 13:12 35.344134 -112.420898 174 29221ft 443kts
17-Jun-17 13:13 35.222640 -112.399029 170 29211ft 443kts
17-Jun-17 13:14 35.102038 -112.373509 169 29211ft 442kts
17-Jun-17 13:15 34.984016 -112.347870 171 28373ft 424kts
17-Jun-17 13:16 34.870044 -112.323005 172 27248ft 440kts
17-Jun-17 13:17 34.748362 -112.296324 171 25925ft 454kts
17-Jun-17 13:18 34.624401 -112.269058 169 24132ft 451kts
17-Jun-17 13:19 34.503663 -112.242579 170 22158ft 433kts
17-Jun-17 13:20 34.387430 -112.214873 168 20156ft 419kts
17-Jun-17 13:22 34.275935 -112.185923 168 18164ft 405kts
17-Jun-17 13:23 34.169193 -112.158315 168 16615ft 386kts
17-Jun-17 13:24 34.065301 -112.128808 161 14668ft 381kts
17-Jun-17 13:25 33.966749 -112.088362 161 13174ft 361kts
17-Jun-17 13:26 33.881226 -112.053586 161 12535ft 313kts
17-Jun-17 13:27 33.799897 -112.020726 161 10894ft 306kts
17-Jun-17 13:28 33.720473 -111.988595 161 9263ft 300kts
17-Jun-17 13:29 33.641806 -111.956830 161 7846ft 300kts
17-Jun-17 13:30 33.565510 -111.926001 161 7025ft 281kts
17-Jun-17 13:31 33.524704 -111.863976 87 6902ft 249kts
17-Jun-17 13:32 33.522953 -111.783113 87 6626ft 236kts
17-Jun-17 13:33 33.521031 -111.705062 89 6003ft 226kts
17-Jun-17 13:34 33.477375 -111.681298 231 5273ft 201kts
17-Jun-17 13:35 33.449576 -111.735652 239 4866ft 173kts
17-Jun-17 13:36 33.427915 -111.786719 261 4816ft 173kts
17-Jun-17 13:37 33.428188 -111.843621 271 3726ft 165kts
17-Jun-17 13:38 33.428768 -111.897044 269 2850ft 155kts
17-Jun-17 13:39 33.428797 -111.948015 269 2031ft 153kts
17-Jun-17 13:40 33.428839 -111.998505 269 1211ft 150kts
17-Jun-17 13:41 33.429944 -112.020271 89 1116ft 22kts
17-Jun-17 13:42 33.429957 -112.016934 88 1119ft 0kts
17-Jun-17 13:43 33.430398 -112.015873 41 1119ft 14kts
17-Jun-17 13:44 33.432152 -112.011865 90 1125ft 21kts
17-Jun-17 13:45 33.432146 -112.003894 89 1124ft 27kts
17-Jun-17 13:46 33.434048 -112.000359 0 1125ft 8kts
17-Jun-17 13:47 33.434292 -111.999858 91 1124ft 0kts
17-Jun-17 13:48 33.434292 -111.999858 91 1124ft 0kts
17-Jun-17 13:49 33.434292 -111.999858 91 1124ft 0kts
17-Jun-17 13:50 33.434292 -111.999858 91 1124ft 0kts
17-Jun-17 13:51 33.434292 -111.999858 91 1124ft 0kts
17-Jun-17 13:52 33.434292 -111.999858 91 1124ft 0kts

Navigation Log

Ident Type
1. KLAS Airport
2. COWBY Fix
3. KPHX Airport